Time;durP1;ratioP1;P1;durP2;ratioP2;P2;SDS_P1;SDS_P2;PMS_P1;PMS_P2;Temp;Humidity;BMP_temperature;BMP_pressure;BME280_temperature;BME280_humidity;BME280_pressure;Samples;Min_cycle;Max_cycle;Signal;HPM_P1;HPM_P2
2021/09/09 00:00:37;;;;;;;14.20;9.68;;;18.30;99.90;;;;;;5047821;28;20481;-83
2021/09/09 00:03:03;;;;;;;13.00;9.55;;;18.30;99.90;;;;;;5037802;28;20044;-83
2021/09/09 00:05:29;;;;;;;17.77;9.38;;;18.30;99.90;;;;;;5054912;28;20033;-83
2021/09/09 00:07:55;;;;;;;15.63;10.10;;;18.30;99.90;;;;;;5038575;28;20059;-83
2021/09/09 00:10:21;;;;;;;14.02;9.77;;;18.30;99.90;;;;;;5057304;28;20057;-84
2021/09/09 00:12:46;;;;;;;19.45;9.60;;;18.30;99.90;;;;;;5067615;28;20048;-84
2021/09/09 00:15:13;;;;;;;14.20;9.25;;;18.30;99.90;;;;;;5054863;28;20052;-84
2021/09/09 00:17:42;;;;;;;12.10;9.48;;;18.30;99.90;;;;;;5054641;28;20489;-83
2021/09/09 00:20:11;;;;;;;12.48;9.45;;;18.50;99.90;;;;;;5037794;28;20044;-83
2021/09/09 00:22:38;;;;;;;15.32;10.43;;;18.20;99.90;;;;;;5068358;28;20503;-83
2021/09/09 00:25:04;;;;;;;13.48;8.98;;;18.10;99.90;;;;;;5038035;28;20037;-84
2021/09/09 00:27:33;;;;;;;11.80;9.48;;;18.10;99.90;;;;;;5068060;28;20078;-79
2021/09/09 00:29:59;;;;;;;13.68;9.75;;;18.10;99.90;;;;;;5066433;28;20036;-80
2021/09/09 00:32:25;;;;;;;14.63;10.20;;;18.10;99.90;;;;;;5073789;28;20094;-79
2021/09/09 00:34:52;;;;;;;14.25;9.65;;;18.10;99.90;;;;;;5062904;28;20032;-84
2021/09/09 00:37:18;;;;;;;13.38;8.82;;;18.00;99.90;;;;;;5057853;28;20400;-84
2021/09/09 00:39:44;;;;;;;13.95;10.13;;;18.00;99.90;;;;;;5061821;28;20037;-84
2021/09/09 00:42:09;;;;;;;13.48;9.63;;;17.90;99.90;;;;;;5062388;28;20036;-84
2021/09/09 00:44:35;;;;;;;17.10;10.85;;;17.90;99.90;;;;;;5042723;28;20459;-84
2021/09/09 00:47:03;;;;;;;12.50;9.60;;;17.90;99.90;;;;;;5060385;28;20102;-84
2021/09/09 00:49:29;;;;;;;12.82;9.75;;;17.90;99.90;;;;;;5056360;28;20065;-84
2021/09/09 00:51:55;;;;;;;12.20;9.57;;;17.90;99.90;;;;;;5057802;28;20040;-83
2021/09/09 00:54:24;;;;;;;13.27;9.35;;;17.90;99.90;;;;;;5045146;28;20090;-84
2021/09/09 00:56:51;;;;;;;12.80;9.65;;;17.90;99.90;;;;;;5054032;28;20097;-84
2021/09/09 00:59:18;;;;;;;14.82;9.55;;;17.90;99.90;;;;;;5032468;28;20047;-79
2021/09/09 01:01:45;;;;;;;11.55;9.45;;;17.90;99.90;;;;;;5068759;28;20037;-84
2021/09/09 01:04:11;;;;;;;14.02;9.73;;;17.80;99.90;;;;;;5068152;28;20036;-84
2021/09/09 01:06:37;;;;;;;18.45;9.85;;;17.80;99.90;;;;;;5058034;28;20040;-79
2021/09/09 01:09:06;;;;;;;17.75;9.80;;;17.80;99.90;;;;;;5064304;28;20086;-84
2021/09/09 01:11:31;;;;;;;12.98;9.85;;;17.80;99.90;;;;;;5074611;28;20040;-84
2021/09/09 01:14:08;;;;;;;13.30;10.18;;;17.80;99.90;;;;;;5072894;28;20049;-83
2021/09/09 01:16:35;;;;;;;13.55;10.32;;;17.70;99.90;;;;;;5065079;28;20036;-84
2021/09/09 01:19:01;;;;;;;13.90;9.98;;;17.70;99.90;;;;;;5042688;28;20125;-84
2021/09/09 01:21:27;;;;;;;14.43;10.02;;;17.70;99.90;;;;;;5045638;28;20032;-84
2021/09/09 01:23:55;;;;;;;16.20;10.65;;;17.70;99.90;;;;;;5039368;28;20167;-84
2021/09/09 01:26:21;;;;;;;16.98;10.25;;;17.70;99.90;;;;;;5039235;28;20041;-84
2021/09/09 01:28:47;;;;;;;13.85;10.25;;;17.60;99.90;;;;;;5053481;28;20116;-85
2021/09/09 01:31:14;;;;;;;16.23;10.88;;;17.70;99.90;;;;;;5068622;28;20117;-83
2021/09/09 01:33:40;;;;;;;15.77;10.30;;;17.60;99.90;;;;;;5052827;28;20037;-84
2021/09/09 01:36:08;;;;;;;13.85;10.48;;;17.60;99.90;;;;;;5020704;28;20419;-84
2021/09/09 01:38:34;;;;;;;16.67;11.20;;;17.60;99.90;;;;;;5059988;28;20115;-83
2021/09/09 01:40:59;;;;;;;16.90;11.23;;;17.60;99.90;;;;;;5060272;28;20037;-83
2021/09/09 01:43:25;;;;;;;16.95;10.95;;;17.60;99.90;;;;;;5051574;28;20060;-80
2021/09/09 01:45:51;;;;;;;16.48;11.35;;;17.60;99.90;;;;;;5035993;28;20060;-84
2021/09/09 01:48:17;;;;;;;14.10;10.88;;;17.60;99.90;;;;;;5019665;28;20447;-84
2021/09/09 01:50:42;;;;;;;15.18;10.77;;;17.60;99.90;;;;;;5045049;28;20048;-84
2021/09/09 01:53:08;;;;;;;15.27;10.50;;;17.50;99.90;;;;;;5058949;28;20052;-84
2021/09/09 01:55:34;;;;;;;14.02;10.65;;;17.50;99.90;;;;;;5060706;28;20051;-84
2021/09/09 01:58:00;;;;;;;18.05;11.57;;;17.50;99.90;;;;;;5049657;28;20048;-80
2021/09/09 02:00:26;;;;;;;19.05;11.45;;;17.50;99.90;;;;;;5056188;28;20036;-80
2021/09/09 02:02:51;;;;;;;13.90;10.77;;;17.50;99.90;;;;;;5055061;28;20048;-79
2021/09/09 02:05:17;;;;;;;17.73;11.98;;;17.50;99.90;;;;;;5056310;28;20052;-79
2021/09/09 02:07:43;;;;;;;15.88;11.95;;;17.40;99.90;;;;;;5071791;28;20045;-79
2021/09/09 02:10:09;;;;;;;15.77;11.77;;;17.30;99.90;;;;;;5062560;28;20048;-79
2021/09/09 02:12:35;;;;;;;12.95;10.93;;;17.40;99.90;;;;;;5071850;28;20040;-79
2021/09/09 02:15:01;;;;;;;17.33;11.45;;;17.40;99.90;;;;;;5059423;28;20044;-79
2021/09/09 02:17:27;;;;;;;18.75;11.68;;;17.40;99.90;;;;;;5059015;28;20123;-85
2021/09/09 02:19:53;;;;;;;15.95;11.93;;;17.40;99.90;;;;;;5039221;28;20493;-85
2021/09/09 02:22:19;;;;;;;15.35;11.82;;;17.40;99.90;;;;;;5067328;28;20123;-84
2021/09/09 02:24:45;;;;;;;16.73;11.68;;;17.40;99.90;;;;;;5056268;28;20032;-84
2021/09/09 02:27:18;;;;;;;19.23;11.65;;;17.40;99.90;;;;;;5055488;28;20092;-78
2021/09/09 02:29:44;;;;;;;18.63;12.13;;;17.30;99.90;;;;;;5044026;28;20076;-79
2021/09/09 02:32:09;;;;;;;20.83;12.25;;;17.30;99.90;;;;;;5024906;28;20052;-78
2021/09/09 02:34:36;;;;;;;19.10;12.70;;;17.30;99.90;;;;;;5052847;28;20033;-79
2021/09/09 02:37:05;;;;;;;17.88;12.75;;;17.30;99.90;;;;;;5027719;28;20418;-84
2021/09/09 02:39:32;;;;;;;15.82;11.68;;;17.30;99.90;;;;;;5071667;28;20045;-84
2021/09/09 02:41:58;;;;;;;13.32;11.60;;;17.30;99.90;;;;;;5057801;28;20047;-84
2021/09/09 02:44:24;;;;;;;15.93;13.05;;;17.30;99.90;;;;;;5043777;28;20056;-84
2021/09/09 02:46:50;;;;;;;17.27;11.52;;;17.30;99.90;;;;;;5067117;28;20044;-85
2021/09/09 02:49:15;;;;;;;16.17;12.52;;;17.30;99.90;;;;;;5051593;28;20115;-84
2021/09/09 02:51:41;;;;;;;21.75;13.00;;;17.20;99.90;;;;;;5037471;28;20074;-84
2021/09/09 02:54:07;;;;;;;21.77;13.73;;;17.10;99.90;;;;;;5047196;28;20105;-84
2021/09/09 02:56:33;;;;;;;20.80;12.32;;;17.10;99.90;;;;;;5065367;28;20037;-84
2021/09/09 02:59:02;;;;;;;17.30;12.90;;;17.10;99.90;;;;;;5067315;28;20087;-83
2021/09/09 03:01:28;;;;;;;18.00;13.05;;;17.10;99.90;;;;;;5051049;28;20094;-84
2021/09/09 03:03:53;;;;;;;17.38;12.60;;;17.10;99.90;;;;;;5054490;28;20044;-84
2021/09/09 03:06:19;;;;;;;23.67;13.75;;;17.00;99.90;;;;;;5050609;28;20032;-84
2021/09/09 03:08:45;;;;;;;18.20;13.40;;;17.00;99.90;;;;;;5066833;28;20090;-79
2021/09/09 03:11:10;;;;;;;19.58;12.43;;;17.00;99.90;;;;;;5050674;28;20083;-79
2021/09/09 03:13:36;;;;;;;19.10;13.02;;;16.90;99.90;;;;;;5063608;28;20041;-79
2021/09/09 03:16:02;;;;;;;18.33;13.88;;;16.90;99.90;;;;;;5067238;28;20045;-84
2021/09/09 03:18:27;;;;;;;19.52;13.68;;;16.90;99.90;;;;;;5034974;28;20037;-84
2021/09/09 03:20:53;;;;;;;21.38;13.48;;;17.00;99.90;;;;;;5049560;28;20481;-80
2021/09/09 03:23:19;;;;;;;17.77;12.90;;;16.90;99.90;;;;;;5070358;28;20151;-80
2021/09/09 03:25:45;;;;;;;19.10;13.38;;;16.90;99.90;;;;;;5071006;28;20086;-86
2021/09/09 03:28:11;;;;;;;20.63;13.82;;;16.90;99.90;;;;;;5045036;28;20036;-86
2021/09/09 03:30:36;;;;;;;17.80;12.95;;;16.90;99.90;;;;;;5075732;28;20041;-86
2021/09/09 03:33:02;;;;;;;17.45;13.25;;;16.80;99.90;;;;;;5057573;28;20036;-84
2021/09/09 03:35:28;;;;;;;19.95;13.18;;;16.90;99.90;;;;;;5062593;28;20076;-80
2021/09/09 03:37:54;;;;;;;19.83;13.38;;;16.80;99.90;;;;;;5067632;28;20463;-79
2021/09/09 03:40:20;;;;;;;17.35;13.20;;;16.80;99.90;;;;;;5058333;28;20047;-79
2021/09/09 03:42:46;;;;;;;17.20;12.38;;;16.80;99.90;;;;;;5032663;28;20402;-84
2021/09/09 03:45:12;;;;;;;22.60;13.40;;;16.80;99.90;;;;;;5047710;28;20049;-83
2021/09/09 03:47:38;;;;;;;22.83;13.68;;;16.80;99.90;;;;;;5067097;28;20059;-83
2021/09/09 03:50:04;;;;;;;18.52;13.20;;;16.80;99.90;;;;;;5058310;28;20036;-84
2021/09/09 03:52:30;;;;;;;20.67;13.18;;;16.80;99.90;;;;;;5022632;28;20040;-84
2021/09/09 03:54:56;;;;;;;19.05;13.48;;;16.80;99.90;;;;;;5054469;28;20374;-84
2021/09/09 03:57:23;;;;;;;23.05;14.25;;;16.80;99.90;;;;;;5046631;28;20460;-84
2021/09/09 03:59:49;;;;;;;18.80;13.52;;;16.80;99.90;;;;;;5054725;28;20040;-84
2021/09/09 04:02:16;;;;;;;22.00;15.38;;;16.80;99.90;;;;;;5069176;28;20124;-83
2021/09/09 04:04:42;;;;;;;22.20;14.07;;;16.80;99.90;;;;;;5056549;28;20119;-84
2021/09/09 04:07:08;;;;;;;20.13;13.95;;;16.80;99.90;;;;;;5054811;28;20079;-84
2021/09/09 04:09:36;;;;;;;23.85;14.02;;;16.70;99.90;;;;;;5054584;28;20037;-84
2021/09/09 04:12:05;;;;;;;20.35;13.63;;;16.70;99.90;;;;;;5058577;28;20059;-83
2021/09/09 04:14:32;;;;;;;19.73;13.77;;;16.70;99.90;;;;;;5059698;28;20472;-83
2021/09/09 04:16:58;;;;;;;24.00;14.80;;;16.70;99.90;;;;;;5056265;28;20037;-83
2021/09/09 04:19:25;;;;;;;23.25;14.10;;;16.70;99.90;;;;;;5067429;28;20167;-84
2021/09/09 04:21:51;;;;;;;22.35;13.88;;;16.70;99.90;;;;;;5054561;28;20072;-83
2021/09/09 04:24:20;;;;;;;19.27;14.20;;;16.70;99.90;;;;;;5037805;28;20029;-83
2021/09/09 04:26:46;;;;;;;20.50;14.38;;;16.70;99.90;;;;;;5042820;28;20149;-84
2021/09/09 04:29:12;;;;;;;24.75;14.75;;;16.70;99.90;;;;;;5023639;28;20521;-83
2021/09/09 04:31:38;;;;;;;21.45;14.88;;;16.60;99.90;;;;;;5036183;28;20044;-83
2021/09/09 04:34:04;;;;;;;18.58;14.07;;;16.70;99.90;;;;;;5028909;28;20040;-83
2021/09/09 04:36:30;;;;;;;20.77;15.02;;;17.10;99.90;;;;;;5025055;28;20116;-83
2021/09/09 04:38:56;;;;;;;20.13;14.25;;;16.70;99.90;;;;;;5053647;28;20170;-83
2021/09/09 04:41:21;;;;;;;18.02;13.88;;;16.60;99.90;;;;;;5037109;28;20052;-83
2021/09/09 04:43:47;;;;;;;18.52;13.90;;;16.60;99.90;;;;;;5054618;28;20124;-83
2021/09/09 04:46:13;;;;;;;23.50;15.13;;;16.60;99.90;;;;;;5053641;28;20466;-80
2021/09/09 04:48:39;;;;;;;24.58;15.15;;;16.60;99.90;;;;;;5060143;28;20424;-80
2021/09/09 04:51:05;;;;;;;23.73;15.18;;;16.60;99.90;;;;;;5019224;28;20063;-79
2021/09/09 04:53:31;;;;;;;24.15;15.75;;;16.60;99.90;;;;;;5054351;28;20037;-80
2021/09/09 04:55:57;;;;;;;30.17;16.27;;;16.60;99.90;;;;;;5036071;28;20033;-83
2021/09/09 04:58:22;;;;;;;24.98;15.43;;;16.60;99.90;;;;;;5053057;28;20045;-83
2021/09/09 05:00:48;;;;;;;23.60;15.32;;;16.60;99.90;;;;;;5054787;28;20065;-83
2021/09/09 05:03:15;;;;;;;24.67;15.38;;;16.50;99.90;;;;;;5052803;28;20103;-83
2021/09/09 05:05:41;;;;;;;26.30;15.77;;;16.50;99.90;;;;;;5053238;28;20035;-83
2021/09/09 05:08:07;;;;;;;27.73;15.50;;;16.50;99.90;;;;;;5054696;28;20049;-80
2021/09/09 05:10:33;;;;;;;26.83;15.13;;;16.50;99.90;;;;;;5036304;28;20041;-80
2021/09/09 05:12:59;;;;;;;22.20;15.05;;;16.60;99.90;;;;;;5036421;28;20053;-80
2021/09/09 05:15:24;;;;;;;24.13;16.17;;;16.60;99.90;;;;;;5053696;28;20037;-80
2021/09/09 05:17:50;;;;;;;25.58;16.17;;;16.50;99.90;;;;;;5052768;28;20037;-80
2021/09/09 05:20:20;;;;;;;29.10;16.25;;;16.50;99.90;;;;;;5051071;28;20128;-80
2021/09/09 05:22:47;;;;;;;25.85;16.58;;;16.50;99.90;;;;;;5052464;28;20167;-80
2021/09/09 05:25:12;;;;;;;27.42;16.48;;;16.50;99.90;;;;;;5062327;28;20036;-80
2021/09/09 05:27:39;;;;;;;27.25;16.95;;;16.50;99.90;;;;;;5060288;28;20048;-80
2021/09/09 05:30:09;;;;;;;24.17;16.98;;;16.50;99.90;;;;;;5074318;28;20036;-81
2021/09/09 05:32:35;;;;;;;21.77;15.55;;;16.50;99.90;;;;;;5067211;28;20395;-81
2021/09/09 05:35:02;;;;;;;26.38;16.20;;;16.40;99.90;;;;;;5044227;28;20377;-84
2021/09/09 05:37:28;;;;;;;27.92;16.33;;;16.50;99.90;;;;;;5031681;28;20115;-85
2021/09/09 05:39:56;;;;;;;24.60;16.30;;;16.50;99.90;;;;;;5069154;28;20044;-84
2021/09/09 05:42:24;;;;;;;32.75;17.45;;;16.50;99.90;;;;;;5045043;28;20049;-84
2021/09/09 05:44:50;;;;;;;28.67;15.93;;;16.60;99.90;;;;;;5030732;28;20509;-80
2021/09/09 05:47:16;;;;;;;26.95;17.35;;;16.50;99.90;;;;;;5052789;28;20140;-79
2021/09/09 05:49:42;;;;;;;32.95;17.45;;;16.50;99.90;;;;;;5068182;28;20548;-79
2021/09/09 05:52:08;;;;;;;37.40;17.48;;;16.50;99.90;;;;;;5042053;28;20044;-82
2021/09/09 05:54:35;;;;;;;30.45;18.10;;;16.50;99.90;;;;;;5055778;28;20052;-81
2021/09/09 05:57:02;;;;;;;27.70;17.48;;;16.60;99.90;;;;;;5050540;28;20040;-89
2021/09/09 05:59:28;;;;;;;31.33;18.70;;;16.60;99.90;;;;;;5044100;28;20041;-82
2021/09/09 06:01:55;;;;;;;33.90;17.60;;;16.60;99.90;;;;;;5038115;28;20037;-86
2021/09/09 06:04:24;;;;;;;30.98;17.85;;;16.60;99.90;;;;;;5053724;28;20162;-85
2021/09/09 06:06:49;;;;;;;32.70;18.08;;;16.60;99.90;;;;;;5033758;28;20044;-85
2021/09/09 06:09:18;;;;;;;32.67;19.30;;;16.60;99.90;;;;;;5052022;28;20037;-84
2021/09/09 06:11:46;;;;;;;33.72;19.67;;;16.70;99.90;;;;;;5052318;28;20036;-92
2021/09/09 06:14:15;;;;;;;28.00;19.67;;;16.70;99.90;;;;;;5035982;28;20044;-86
2021/09/09 06:16:44;;;;;;;31.23;19.15;;;16.70;99.90;;;;;;5051846;28;20478;-87
2021/09/09 06:19:16;;;;;;;26.45;18.95;;;16.70;99.90;;;;;;5034627;28;20044;-86
2021/09/09 06:21:48;;;;;;;26.60;18.67;;;16.70;99.90;;;;;;5035260;28;20509;-85
2021/09/09 06:24:20;;;;;;;30.27;18.65;;;16.80;99.90;;;;;;5039508;28;20041;-89
2021/09/09 06:26:51;;;;;;;27.85;18.00;;;16.80;99.90;;;;;;5023675;28;20043;-89
2021/09/09 06:29:17;;;;;;;28.60;19.58;;;17.60;99.90;;;;;;5049542;28;20037;-86
2021/09/09 06:31:43;;;;;;;31.23;18.70;;;16.90;99.90;;;;;;5059221;28;20032;-82
2021/09/09 06:34:11;;;;;;;31.20;19.50;;;16.90;99.90;;;;;;5062014;28;20033;-84
2021/09/09 06:36:36;;;;;;;27.83;18.65;;;17.00;99.90;;;;;;5055738;28;20052;-85
2021/09/09 06:39:02;;;;;;;30.73;20.15;;;17.20;99.90;;;;;;5030056;28;20489;-85
2021/09/09 06:41:28;;;;;;;27.33;20.55;;;17.00;99.90;;;;;;5045928;28;20106;-77
2021/09/09 06:43:54;;;;;;;32.97;19.45;;;17.10;99.90;;;;;;5050113;28;20053;-85
2021/09/09 06:46:19;;;;;;;32.05;18.83;;;17.10;99.90;;;;;;5047966;28;20409;-78
2021/09/09 06:48:45;;;;;;;28.23;19.48;;;17.10;99.90;;;;;;5048629;28;20041;-78
2021/09/09 06:51:21;;;;;;;29.02;18.70;;;17.20;99.90;;;;;;5047801;28;20055;-85
2021/09/09 06:53:47;;;;;;;28.35;19.65;;;17.30;99.90;;;;;;5048721;28;20108;-85
2021/09/09 06:56:12;;;;;;;34.67;19.77;;;17.30;99.90;;;;;;5047938;28;20124;-85
2021/09/09 06:58:41;;;;;;;35.47;19.83;;;17.30;99.90;;;;;;5028722;28;20461;-85
2021/09/09 07:01:07;;;;;;;33.65;19.65;;;17.40;99.90;;;;;;5013708;28;20037;-76
2021/09/09 07:03:36;;;;;;;38.83;20.42;;;17.40;99.90;;;;;;5046008;28;20051;-84
2021/09/09 07:06:01;;;;;;;29.90;19.83;;;17.50;99.90;;;;;;5063610;28;20417;-76
2021/09/09 07:08:27;;;;;;;30.25;21.55;;;17.50;99.90;;;;;;5047666;28;20063;-76
2021/09/09 07:10:53;;;;;;;34.95;21.30;;;17.50;99.90;;;;;;5031267;28;20083;-84
2021/09/09 07:13:20;;;;;;;33.30;21.70;;;17.50;99.90;;;;;;5046455;28;20435;-84
2021/09/09 07:15:46;;;;;;;33.42;20.75;;;17.50;99.90;;;;;;5032557;28;20705;-77
2021/09/09 07:18:12;;;;;;;30.63;20.55;;;17.50;99.90;;;;;;5047131;28;20087;-84
2021/09/09 07:20:38;;;;;;;30.30;19.55;;;17.60;99.90;;;;;;5047328;28;20107;-84
2021/09/09 07:23:04;;;;;;;32.53;21.15;;;17.60;99.90;;;;;;5030560;28;20036;-84
2021/09/09 07:25:29;;;;;;;29.98;20.75;;;17.70;99.90;;;;;;5046699;28;20338;-84
2021/09/09 07:27:55;;;;;;;28.23;20.58;;;17.80;99.90;;;;;;5030280;28;20051;-84
2021/09/09 07:30:21;;;;;;;29.30;20.20;;;17.80;99.90;;;;;;5030296;28;20469;-81
2021/09/09 07:32:59;;;;;;;26.92;18.52;;;17.80;99.90;;;;;;5048433;28;20118;-87
2021/09/09 07:35:30;;;;;;;39.15;21.58;;;17.80;99.90;;;;;;5047064;28;20033;-85
2021/09/09 07:37:55;;;;;;;37.58;20.95;;;17.90;99.90;;;;;;5029973;28;20037;-86
2021/09/09 07:40:24;;;;;;;26.13;20.35;;;17.90;99.90;;;;;;5015692;28;20052;-84
2021/09/09 07:42:50;;;;;;;30.63;19.95;;;18.00;99.90;;;;;;5031017;28;20055;-77
2021/09/09 07:45:16;;;;;;;27.20;19.30;;;18.00;99.90;;;;;;5047758;28;20494;-77
2021/09/09 07:47:42;;;;;;;30.80;19.95;;;18.00;99.90;;;;;;5048921;28;20059;-77
2021/09/09 07:50:09;;;;;;;30.02;19.48;;;18.10;99.90;;;;;;5048281;28;20409;-83
2021/09/09 07:52:40;;;;;;;24.30;19.67;;;18.10;99.90;;;;;;5045798;28;20473;-83
2021/09/09 07:55:07;;;;;;;27.13;19.60;;;18.20;99.90;;;;;;5047491;28;20055;-83
2021/09/09 07:57:33;;;;;;;34.15;20.73;;;18.30;99.90;;;;;;5048200;28;20041;-82
2021/09/09 07:59:59;;;;;;;32.50;20.80;;;18.30;99.90;;;;;;5046496;28;20099;-83
2021/09/09 08:02:25;;;;;;;29.92;20.77;;;18.30;99.90;;;;;;5048737;28;20041;-77
2021/09/09 08:04:53;;;;;;;28.67;19.40;;;18.30;99.90;;;;;;5045938;28;20040;-77
2021/09/09 08:07:19;;;;;;;27.10;20.83;;;18.40;99.90;;;;;;5044936;28;20393;-77
2021/09/09 08:09:45;;;;;;;28.17;20.52;;;18.50;99.90;;;;;;5050701;28;20045;-77
2021/09/09 08:12:10;;;;;;;27.23;19.98;;;18.50;99.90;;;;;;5051804;28;20043;-77
2021/09/09 08:14:39;;;;;;;33.55;20.75;;;18.50;99.90;;;;;;5049856;28;20359;-82
2021/09/09 08:17:05;;;;;;;29.10;19.75;;;18.50;99.90;;;;;;5052359;28;20089;-77
2021/09/09 08:19:45;;;;;;;28.05;19.55;;;18.60;99.90;;;;;;5051328;28;20093;-85
2021/09/09 08:22:37;;;;;;;29.92;19.60;;;18.80;99.90;;;;;;5034365;28;20040;-83
2021/09/09 08:25:04;;;;;;;28.63;19.65;;;18.80;99.90;;;;;;5033539;28;20044;-87
2021/09/09 08:27:30;;;;;;;28.23;19.38;;;18.80;99.90;;;;;;5050587;28;20052;-87
2021/09/09 08:29:57;;;;;;;29.02;19.63;;;18.90;99.90;;;;;;5033686;28;20076;-80
2021/09/09 08:32:24;;;;;;;29.02;20.13;;;18.90;99.90;;;;;;5033961;28;20045;-80
2021/09/09 08:34:52;;;;;;;27.33;19.95;;;18.90;99.90;;;;;;5048847;28;20048;-79
2021/09/09 08:37:18;;;;;;;30.48;20.60;;;19.00;99.90;;;;;;5049796;28;20397;-80
2021/09/09 08:39:44;;;;;;;26.98;19.90;;;19.00;99.90;;;;;;5017303;28;20106;-80
2021/09/09 08:42:12;;;;;;;27.33;19.85;;;19.10;99.90;;;;;;5051816;28;20044;-80
2021/09/09 08:44:38;;;;;;;31.23;19.80;;;19.10;99.90;;;;;;5049604;28;20075;-80
2021/09/09 08:47:06;;;;;;;35.90;20.63;;;19.20;99.90;;;;;;5032610;28;20493;-81
2021/09/09 08:49:31;;;;;;;25.20;20.00;;;19.20;99.90;;;;;;5049109;28;20044;-78
2021/09/09 08:51:58;;;;;;;34.17;20.02;;;19.30;99.90;;;;;;5049668;28;20041;-80
2021/09/09 08:54:25;;;;;;;29.30;20.13;;;19.30;99.90;;;;;;5050597;28;20041;-79
2021/09/09 08:56:51;;;;;;;25.60;18.40;;;19.40;99.90;;;;;;5048837;28;20037;-79
2021/09/09 08:59:16;;;;;;;26.77;19.23;;;19.40;99.90;;;;;;5022004;28;20040;-82
2021/09/09 09:02:06;;;;;;;28.52;19.83;;;19.50;99.90;;;;;;5048433;28;20049;-82
2021/09/09 09:04:34;;;;;;;33.17;21.63;;;19.70;99.90;;;;;;5048836;28;20071;-82
2021/09/09 09:07:01;;;;;;;30.63;21.25;;;19.60;99.90;;;;;;5050755;28;20033;-82
2021/09/09 09:09:32;;;;;;;29.27;20.52;;;19.60;99.90;;;;;;5047508;28;20055;-82
2021/09/09 09:11:58;;;;;;;34.70;19.85;;;19.70;99.90;;;;;;5050011;28;20040;-82
2021/09/09 09:14:25;;;;;;;29.17;20.73;;;19.70;99.90;;;;;;5047864;28;20064;-82
2021/09/09 09:16:55;;;;;;;25.10;19.17;;;19.70;99.90;;;;;;5047904;28;20033;-82
2021/09/09 09:19:26;;;;;;;25.23;19.05;;;19.80;99.90;;;;;;5049078;28;20646;-82
2021/09/09 09:22:05;;;;;;;28.45;19.83;;;19.90;99.90;;;;;;5049402;28;20036;-82
2021/09/09 09:24:34;;;;;;;30.67;18.42;;;19.90;99.90;;;;;;5032527;28;20086;-82
2021/09/09 09:27:07;;;;;;;24.67;19.17;;;19.80;99.90;;;;;;5001090;28;20098;-82
2021/09/09 09:29:33;;;;;;;27.88;18.90;;;20.00;99.90;;;;;;5047082;28;20515;-82
2021/09/09 09:32:17;;;;;;;29.67;19.23;;;20.10;99.90;;;;;;5047869;28;20112;-85
2021/09/09 09:34:45;;;;;;;28.67;19.08;;;20.20;99.90;;;;;;5048312;28;20381;-84
2021/09/09 09:37:20;;;;;;;28.90;18.55;;;20.20;99.90;;;;;;5049204;28;20415;-82
2021/09/09 09:39:46;;;;;;;22.70;17.42;;;20.20;99.90;;;;;;5049528;28;20055;-82
2021/09/09 09:42:12;;;;;;;27.33;17.30;;;20.30;99.90;;;;;;5047989;28;20549;-83
2021/09/09 09:44:40;;;;;;;22.20;17.25;;;20.30;99.90;;;;;;5047188;28;20056;-83
2021/09/09 09:47:09;;;;;;;27.17;17.15;;;20.40;99.90;;;;;;5049265;28;20044;-83
2021/09/09 09:49:37;;;;;;;25.67;16.33;;;20.40;99.90;;;;;;5032288;28;20408;-76
2021/09/09 09:52:06;;;;;;;26.45;17.50;;;20.40;99.90;;;;;;5048847;28;20495;-76
2021/09/09 09:54:33;;;;;;;25.70;15.88;;;20.50;99.90;;;;;;5048368;28;20041;-83
2021/09/09 09:57:00;;;;;;;23.77;15.70;;;20.60;99.90;;;;;;5049168;28;20106;-82
2021/09/09 09:59:48;;;;;;;21.15;14.95;;;20.60;99.90;;;;;;5053487;28;20063;-76
2021/09/09 10:02:14;;;;;;;26.10;15.80;;;20.70;99.90;;;;;;5033442;28;21170;-83
2021/09/09 10:04:45;;;;;;;21.08;15.68;;;20.70;99.90;;;;;;5048692;28;20075;-83
2021/09/09 10:07:12;;;;;;;22.02;13.90;;;20.80;99.90;;;;;;5050969;28;20037;-82
2021/09/09 10:09:39;;;;;;;22.38;14.80;;;20.80;99.90;;;;;;5051898;28;20055;-83
2021/09/09 10:12:14;;;;;;;28.73;14.48;;;20.80;99.90;;;;;;5049966;28;20090;-82
2021/09/09 10:14:44;;;;;;;;;;;20.90;99.90;;;;;;5053415;28;20405;-82
2021/09/09 10:17:10;;;;;;;22.08;14.40;;;20.90;99.90;;;;;;5053129;28;19921;-82
2021/09/09 10:19:35;;;;;;;20.60;14.10;;;21.00;99.90;;;;;;5057822;28;20037;-83
2021/09/09 10:22:12;;;;;;;19.65;14.23;;;21.10;99.90;;;;;;5049310;28;20566;-83
2021/09/09 10:24:43;;;;;;;21.48;13.38;;;21.20;99.90;;;;;;5052677;28;20032;-78
2021/09/09 10:27:18;;;;;;;21.10;14.35;;;21.20;99.90;;;;;;5056249;28;20055;-77
2021/09/09 10:29:49;;;;;;;17.83;13.95;;;21.30;99.90;;;;;;5059275;28;20036;-84
2021/09/09 10:32:33;;;;;;;22.30;14.35;;;21.30;99.90;;;;;;5060843;28;20032;-85
2021/09/09 10:35:17;;;;;;;21.75;14.20;;;21.40;99.90;;;;;;5059690;28;20444;-84
2021/09/09 10:37:46;;;;;;;18.10;11.98;;;21.40;99.90;;;;;;5029495;28;20048;-77
2021/09/09 10:40:36;;;;;;;16.95;12.43;;;21.50;99.90;;;;;;5066175;28;20554;-75
2021/09/09 10:43:12;;;;;;;18.67;12.18;;;21.50;99.90;;;;;;5048917;28;20143;-79
2021/09/09 10:45:44;;;;;;;18.40;12.05;;;21.60;99.90;;;;;;5059840;28;20048;-84
2021/09/09 10:48:21;;;;;;;21.35;11.82;;;21.70;99.90;;;;;;5065219;28;20051;-85
2021/09/09 10:51:07;;;;;;;21.40;13.07;;;21.80;99.90;;;;;;5068125;28;20373;-77
2021/09/09 10:53:34;;;;;;;20.70;12.50;;;21.90;99.90;;;;;;5069854;28;20040;-84
2021/09/09 10:56:11;;;;;;;20.65;11.00;;;21.90;99.90;;;;;;5066408;28;20061;-77
2021/09/09 10:58:40;;;;;;;18.25;11.82;;;22.00;99.90;;;;;;5065031;28;20051;-78
2021/09/09 11:01:07;;;;;;;15.10;10.63;;;22.00;99.90;;;;;;5056480;28;20359;-77
2021/09/09 11:03:50;;;;;;;16.38;11.68;;;22.10;99.90;;;;;;5081885;28;20039;-77
2021/09/09 11:06:17;;;;;;;15.95;11.93;;;22.10;99.90;;;;;;5050087;28;20037;-78
2021/09/09 11:08:45;;;;;;;17.00;11.00;;;22.20;99.90;;;;;;5085511;28;20096;-77
2021/09/09 11:11:25;;;;;;;18.30;10.73;;;22.20;99.90;;;;;;5065942;28;20482;-78
2021/09/09 11:14:08;;;;;;;16.60;10.05;;;22.20;99.90;;;;;;5070187;28;20044;-78
2021/09/09 11:16:38;;;;;;;14.75;10.32;;;22.30;99.90;;;;;;5050962;28;20088;-77
2021/09/09 11:19:09;;;;;;;15.00;9.75;;;22.30;99.90;;;;;;5052825;28;20040;-78
2021/09/09 11:21:38;;;;;;;17.90;10.35;;;22.30;99.90;;;;;;5063170;28;20505;-78
2021/09/09 11:24:06;;;;;;;14.25;9.20;;;22.40;99.90;;;;;;5064653;28;20097;-78
2021/09/09 11:26:32;;;;;;;15.32;9.65;;;22.50;99.90;;;;;;5047823;28;20060;-78
2021/09/09 11:28:59;;;;;;;15.63;9.48;;;22.50;99.90;;;;;;5063144;28;20052;-78
2021/09/09 11:31:27;;;;;;;13.50;10.45;;;22.50;99.90;;;;;;5060715;28;20037;-78
2021/09/09 11:34:02;;;;;;;14.25;9.48;;;22.60;99.90;;;;;;5063134;28;20072;-78
2021/09/09 11:36:35;;;;;;;15.55;9.82;;;22.70;99.90;;;;;;5064131;28;20041;-78
2021/09/09 11:39:04;;;;;;;13.50;10.27;;;22.70;99.90;;;;;;5061785;28;20044;-78
2021/09/09 11:41:31;;;;;;;15.15;9.52;;;22.80;99.90;;;;;;5060115;28;20451;-78
2021/09/09 11:44:00;;;;;;;17.20;10.27;;;22.80;99.90;;;;;;5065231;28;20382;-78
2021/09/09 11:46:31;;;;;;;16.67;10.32;;;22.90;99.90;;;;;;5063042;28;20046;-78
2021/09/09 11:49:02;;;;;;;18.02;9.68;;;22.90;99.90;;;;;;5053368;28;20044;-78
2021/09/09 11:51:34;;;;;;;15.50;9.93;;;22.90;99.90;;;;;;5060103;28;20501;-78
2021/09/09 11:54:01;;;;;;;18.92;9.70;;;23.00;99.90;;;;;;5050855;28;20029;-85
2021/09/09 11:56:27;;;;;;;15.05;10.30;;;23.00;99.90;;;;;;5053041;28;20119;-85
2021/09/09 11:58:53;;;;;;;14.07;10.18;;;23.10;99.90;;;;;;5047865;28;20182;-84
2021/09/09 12:01:19;;;;;;;19.00;10.27;;;23.20;99.90;;;;;;5036324;28;20037;-85
2021/09/09 12:03:46;;;;;;;13.07;9.25;;;23.20;99.90;;;;;;5055804;28;20029;-84
2021/09/09 12:06:22;;;;;;;15.15;10.55;;;23.20;99.90;;;;;;5038477;28;20059;-91
2021/09/09 12:08:48;;;;;;;14.90;9.75;;;23.30;99.90;;;;;;5051102;28;20048;-90
2021/09/09 12:11:14;;;;;;;14.52;9.25;;;23.40;99.90;;;;;;5051129;28;20040;-90
2021/09/09 12:13:44;;;;;;;22.70;9.43;;;23.40;99.90;;;;;;5040264;28;20585;-91
2021/09/09 12:16:10;;;;;;;13.80;9.32;;;23.50;99.90;;;;;;5051201;28;20419;-84
2021/09/09 12:18:38;;;;;;;17.77;9.90;;;23.50;99.90;;;;;;5056944;28;20037;-90
2021/09/09 12:21:16;;;;;;;12.82;10.00;;;23.50;99.90;;;;;;5060741;28;20049;-83
2021/09/09 12:24:05;;;;;;;17.10;9.65;;;23.60;99.90;;;;;;5039027;28;20120;-83
2021/09/09 12:26:50;;;;;;;16.88;9.82;;;23.60;99.90;;;;;;5022613;28;20040;-83
2021/09/09 12:29:21;;;;;;;20.83;10.57;;;23.60;99.90;;;;;;5048812;28;20052;-83
2021/09/09 12:31:47;;;;;;;15.10;9.43;;;23.60;99.90;;;;;;5049292;28;20512;-89